sensor_id;sensor_type;location;lat;lon;timestamp;temperature;humidity
66752;SHT31;53663;42.676;23.238;2023-11-21T00:02:02;4.72;77.35
66752;SHT31;53663;42.676;23.238;2023-11-21T00:04:29;4.72;77.38
66752;SHT31;53663;42.676;23.238;2023-11-21T00:06:55;4.69;77.15
66752;SHT31;53663;42.676;23.238;2023-11-21T00:09:21;4.73;77.20
66752;SHT31;53663;42.676;23.238;2023-11-21T00:11:47;4.72;77.22
66752;SHT31;53663;42.676;23.238;2023-11-21T00:14:12;4.67;77.21
66752;SHT31;53663;42.676;23.238;2023-11-21T00:16:41;4.54;77.60
66752;SHT31;53663;42.676;23.238;2023-11-21T00:19:06;4.58;77.69
66752;SHT31;53663;42.676;23.238;2023-11-21T00:21:32;4.37;78.28
66752;SHT31;53663;42.676;23.238;2023-11-21T00:23:57;4.33;78.20
66752;SHT31;53663;42.676;23.238;2023-11-21T00:26:23;4.40;78.22
66752;SHT31;53663;42.676;23.238;2023-11-21T00:28:59;4.48;77.92
66752;SHT31;53663;42.676;23.238;2023-11-21T00:31:25;4.45;78.13
66752;SHT31;53663;42.676;23.238;2023-11-21T00:33:50;4.33;78.27
66752;SHT31;53663;42.676;23.238;2023-11-21T00:36:16;4.03;79.96
66752;SHT31;53663;42.676;23.238;2023-11-21T00:38:42;4.09;79.92
66752;SHT31;53663;42.676;23.238;2023-11-21T00:41:07;4.20;79.42
66752;SHT31;53663;42.676;23.238;2023-11-21T00:43:33;4.24;79.09
66752;SHT31;53663;42.676;23.238;2023-11-21T00:46:04;4.14;79.29
66752;SHT31;53663;42.676;23.238;2023-11-21T00:48:29;4.24;79.17
66752;SHT31;53663;42.676;23.238;2023-11-21T00:50:55;4.03;79.42
66752;SHT31;53663;42.676;23.238;2023-11-21T00:53:21;4.06;79.18
66752;SHT31;53663;42.676;23.238;2023-11-21T00:55:47;3.94;79.62
66752;SHT31;53663;42.676;23.238;2023-11-21T00:58:13;3.90;79.63
66752;SHT31;53663;42.676;23.238;2023-11-21T01:00:39;3.97;79.70
66752;SHT31;53663;42.676;23.238;2023-11-21T01:03:07;4.03;79.24
66752;SHT31;53663;42.676;23.238;2023-11-21T01:05:33;3.93;79.17
66752;SHT31;53663;42.676;23.238;2023-11-21T01:07:59;3.96;79.03
66752;SHT31;53663;42.676;23.238;2023-11-21T01:10:25;3.85;79.31
66752;SHT31;53663;42.676;23.238;2023-11-21T01:12:50;3.85;79.43
66752;SHT31;53663;42.676;23.238;2023-11-21T01:15:16;3.92;79.38
66752;SHT31;53663;42.676;23.238;2023-11-21T01:17:41;3.93;79.43
66752;SHT31;53663;42.676;23.238;2023-11-21T01:20:08;3.96;79.00
66752;SHT31;53663;42.676;23.238;2023-11-21T01:22:38;3.85;79.51
66752;SHT31;53663;42.676;23.238;2023-11-21T01:25:04;3.83;79.46
66752;SHT31;53663;42.676;23.238;2023-11-21T01:27:33;3.64;79.63
66752;SHT31;53663;42.676;23.238;2023-11-21T01:29:59;3.50;81.07
66752;SHT31;53663;42.676;23.238;2023-11-21T01:32:25;3.55;80.62
66752;SHT31;53663;42.676;23.238;2023-11-21T01:34:50;3.61;80.06
66752;SHT31;53663;42.676;23.238;2023-11-21T01:37:16;3.54;80.18
66752;SHT31;53663;42.676;23.238;2023-11-21T01:39:43;3.52;80.09
66752;SHT31;53663;42.676;23.238;2023-11-21T01:42:09;3.45;80.26
66752;SHT31;53663;42.676;23.238;2023-11-21T01:44:35;3.42;80.29
66752;SHT31;53663;42.676;23.238;2023-11-21T01:47:01;3.44;80.42
66752;SHT31;53663;42.676;23.238;2023-11-21T01:49:32;3.39;80.93
66752;SHT31;53663;42.676;23.238;2023-11-21T01:51:58;3.37;80.85
66752;SHT31;53663;42.676;23.238;2023-11-21T01:54:25;3.42;80.61
66752;SHT31;53663;42.676;23.238;2023-11-21T01:56:51;3.42;80.29
66752;SHT31;53663;42.676;23.238;2023-11-21T01:59:21;3.39;80.29
66752;SHT31;53663;42.676;23.238;2023-11-21T02:01:48;3.38;80.07
66752;SHT31;53663;42.676;23.238;2023-11-21T02:04:15;3.31;80.58
66752;SHT31;53663;42.676;23.238;2023-11-21T02:06:41;3.28;80.93
66752;SHT31;53663;42.676;23.238;2023-11-21T02:09:07;3.28;81.15
66752;SHT31;53663;42.676;23.238;2023-11-21T02:11:34;3.34;80.92
66752;SHT31;53663;42.676;23.238;2023-11-21T02:14:01;3.31;80.73
66752;SHT31;53663;42.676;23.238;2023-11-21T02:16:27;3.31;80.64
66752;SHT31;53663;42.676;23.238;2023-11-21T02:18:53;3.48;80.13
66752;SHT31;53663;42.676;23.238;2023-11-21T02:21:18;3.41;80.14
66752;SHT31;53663;42.676;23.238;2023-11-21T02:23:47;3.35;80.28
66752;SHT31;53663;42.676;23.238;2023-11-21T02:26:12;3.32;80.40
66752;SHT31;53663;42.676;23.238;2023-11-21T02:28:39;3.25;80.62
66752;SHT31;53663;42.676;23.238;2023-11-21T02:31:05;3.31;80.51
66752;SHT31;53663;42.676;23.238;2023-11-21T02:33:31;3.34;80.97
66752;SHT31;53663;42.676;23.238;2023-11-21T02:36:01;3.30;80.87
66752;SHT31;53663;42.676;23.238;2023-11-21T02:38:27;3.38;80.68
66752;SHT31;53663;42.676;23.238;2023-11-21T02:40:52;3.34;80.50
66752;SHT31;53663;42.676;23.238;2023-11-21T02:43:18;3.31;80.50
66752;SHT31;53663;42.676;23.238;2023-11-21T02:45:44;3.30;80.38
66752;SHT31;53663;42.676;23.238;2023-11-21T02:48:09;3.34;80.28
66752;SHT31;53663;42.676;23.238;2023-11-21T02:50:35;3.23;80.35
66752;SHT31;53663;42.676;23.238;2023-11-21T02:53:01;3.23;80.82
66752;SHT31;53663;42.676;23.238;2023-11-21T02:55:27;3.21;80.83
66752;SHT31;53663;42.676;23.238;2023-11-21T02:57:53;3.24;80.75
66752;SHT31;53663;42.676;23.238;2023-11-21T03:00:18;3.28;80.72
66752;SHT31;53663;42.676;23.238;2023-11-21T03:02:44;3.25;80.66
66752;SHT31;53663;42.676;23.238;2023-11-21T03:05:09;3.24;80.78
66752;SHT31;53663;42.676;23.238;2023-11-21T03:07:37;3.18;81.01
66752;SHT31;53663;42.676;23.238;2023-11-21T03:10:03;3.18;80.88
66752;SHT31;53663;42.676;23.238;2023-11-21T03:12:29;3.25;80.80
66752;SHT31;53663;42.676;23.238;2023-11-21T03:14:55;3.30;80.63
66752;SHT31;53663;42.676;23.238;2023-11-21T03:17:21;3.30;80.45
66752;SHT31;53663;42.676;23.238;2023-11-21T03:19:46;3.32;80.44
66752;SHT31;53663;42.676;23.238;2023-11-21T03:22:12;3.31;80.36
66752;SHT31;53663;42.676;23.238;2023-11-21T03:24:38;3.30;80.33
66752;SHT31;53663;42.676;23.238;2023-11-21T03:27:04;3.30;80.40
66752;SHT31;53663;42.676;23.238;2023-11-21T03:29:30;3.28;80.81
66752;SHT31;53663;42.676;23.238;2023-11-21T03:31:56;3.34;80.49
66752;SHT31;53663;42.676;23.238;2023-11-21T03:34:27;3.37;80.64
66752;SHT31;53663;42.676;23.238;2023-11-21T03:36:54;3.41;80.70
66752;SHT31;53663;42.676;23.238;2023-11-21T03:39:20;3.46;80.44
66752;SHT31;53663;42.676;23.238;2023-11-21T03:41:46;3.45;80.25
66752;SHT31;53663;42.676;23.238;2023-11-21T03:44:12;3.48;80.47
66752;SHT31;53663;42.676;23.238;2023-11-21T03:46:38;3.34;80.56
66752;SHT31;53663;42.676;23.238;2023-11-21T03:49:04;3.28;81.16
66752;SHT31;53663;42.676;23.238;2023-11-21T03:51:29;3.21;81.32
66752;SHT31;53663;42.676;23.238;2023-11-21T03:53:55;3.28;81.07
66752;SHT31;53663;42.676;23.238;2023-11-21T03:56:20;3.30;81.06
66752;SHT31;53663;42.676;23.238;2023-11-21T03:58:49;3.31;81.31
66752;SHT31;53663;42.676;23.238;2023-11-21T04:01:24;3.24;81.49
66752;SHT31;53663;42.676;23.238;2023-11-21T04:03:50;3.27;81.57
66752;SHT31;53663;42.676;23.238;2023-11-21T04:06:16;3.04;82.19
66752;SHT31;53663;42.676;23.238;2023-11-21T04:08:43;3.00;82.91
66752;SHT31;53663;42.676;23.238;2023-11-21T04:11:09;2.96;82.58
66752;SHT31;53663;42.676;23.238;2023-11-21T04:13:38;2.75;84.11
66752;SHT31;53663;42.676;23.238;2023-11-21T04:16:05;2.90;83.29
66752;SHT31;53663;42.676;23.238;2023-11-21T04:18:31;2.58;84.79
66752;SHT31;53663;42.676;23.238;2023-11-21T04:20:56;2.52;85.38
66752;SHT31;53663;42.676;23.238;2023-11-21T04:23:22;2.69;84.88
66752;SHT31;53663;42.676;23.238;2023-11-21T04:25:47;2.56;85.16
66752;SHT31;53663;42.676;23.238;2023-11-21T04:28:13;2.72;85.11
66752;SHT31;53663;42.676;23.238;2023-11-21T04:30:38;2.87;84.25
66752;SHT31;53663;42.676;23.238;2023-11-21T04:33:04;2.86;84.03
66752;SHT31;53663;42.676;23.238;2023-11-21T04:35:30;2.79;83.92
66752;SHT31;53663;42.676;23.238;2023-11-21T04:37:55;2.85;84.00
66752;SHT31;53663;42.676;23.238;2023-11-21T04:40:22;2.93;83.45
66752;SHT31;53663;42.676;23.238;2023-11-21T04:42:48;3.01;83.10
66752;SHT31;53663;42.676;23.238;2023-11-21T04:45:13;3.08;83.04
66752;SHT31;53663;42.676;23.238;2023-11-21T04:47:39;3.14;82.44
66752;SHT31;53663;42.676;23.238;2023-11-21T04:50:05;3.17;82.31
66752;SHT31;53663;42.676;23.238;2023-11-21T04:52:31;3.16;82.22
66752;SHT31;53663;42.676;23.238;2023-11-21T04:54:58;3.21;82.19
66752;SHT31;53663;42.676;23.238;2023-11-21T04:57:26;3.24;81.81
66752;SHT31;53663;42.676;23.238;2023-11-21T04:59:54;3.21;82.15
66752;SHT31;53663;42.676;23.238;2023-11-21T05:02:19;3.20;82.18
66752;SHT31;53663;42.676;23.238;2023-11-21T05:04:47;3.35;81.82
66752;SHT31;53663;42.676;23.238;2023-11-21T05:07:12;3.35;81.78
66752;SHT31;53663;42.676;23.238;2023-11-21T05:09:44;3.37;81.50
66752;SHT31;53663;42.676;23.238;2023-11-21T05:12:12;3.37;81.37
66752;SHT31;53663;42.676;23.238;2023-11-21T05:14:38;3.32;81.53
66752;SHT31;53663;42.676;23.238;2023-11-21T05:17:03;3.38;81.81
66752;SHT31;53663;42.676;23.238;2023-11-21T05:19:33;3.41;81.75
66752;SHT31;53663;42.676;23.238;2023-11-21T05:22:00;3.38;81.83
66752;SHT31;53663;42.676;23.238;2023-11-21T05:24:26;3.45;81.80
66752;SHT31;53663;42.676;23.238;2023-11-21T05:26:51;3.35;81.80
66752;SHT31;53663;42.676;23.238;2023-11-21T05:29:18;3.35;82.03
66752;SHT31;53663;42.676;23.238;2023-11-21T05:31:43;3.38;81.95
66752;SHT31;53663;42.676;23.238;2023-11-21T05:34:09;3.42;81.77
66752;SHT31;53663;42.676;23.238;2023-11-21T05:36:34;3.38;81.91
66752;SHT31;53663;42.676;23.238;2023-11-21T05:39:00;3.42;82.25
66752;SHT31;53663;42.676;23.238;2023-11-21T05:41:25;3.54;81.86
66752;SHT31;53663;42.676;23.238;2023-11-21T05:43:51;3.58;81.71
66752;SHT31;53663;42.676;23.238;2023-11-21T05:46:16;3.71;81.47
66752;SHT31;53663;42.676;23.238;2023-11-21T05:48:43;3.78;81.12
66752;SHT31;53663;42.676;23.238;2023-11-21T05:51:08;3.82;80.99
66752;SHT31;53663;42.676;23.238;2023-11-21T05:53:34;3.75;81.21
66752;SHT31;53663;42.676;23.238;2023-11-21T05:56:00;3.78;81.52
66752;SHT31;53663;42.676;23.238;2023-11-21T05:58:25;3.89;81.01
66752;SHT31;53663;42.676;23.238;2023-11-21T06:00:51;3.97;80.72
66752;SHT31;53663;42.676;23.238;2023-11-21T06:03:16;4.00;80.81
66752;SHT31;53663;42.676;23.238;2023-11-21T06:05:42;4.25;80.22
66752;SHT31;53663;42.676;23.238;2023-11-21T06:08:08;4.23;80.31
66752;SHT31;53663;42.676;23.238;2023-11-21T06:10:34;4.48;79.64
66752;SHT31;53663;42.676;23.238;2023-11-21T06:12:59;4.75;79.02
66752;SHT31;53663;42.676;23.238;2023-11-21T06:15:25;4.89;78.68
66752;SHT31;53663;42.676;23.238;2023-11-21T06:17:51;5.13;78.21
66752;SHT31;53663;42.676;23.238;2023-11-21T06:20:19;5.44;76.59
66752;SHT31;53663;42.676;23.238;2023-11-21T06:22:47;5.00;76.54
66752;SHT31;53663;42.676;23.238;2023-11-21T06:25:13;5.09;77.44
66752;SHT31;53663;42.676;23.238;2023-11-21T06:27:43;5.51;75.72
66752;SHT31;53663;42.676;23.238;2023-11-21T06:30:13;5.99;74.25
66752;SHT31;53663;42.676;23.238;2023-11-21T06:32:42;6.41;73.08
66752;SHT31;53663;42.676;23.238;2023-11-21T06:35:11;6.16;73.50
66752;SHT31;53663;42.676;23.238;2023-11-21T06:37:37;6.91;72.11
66752;SHT31;53663;42.676;23.238;2023-11-21T06:40:03;7.91;69.11
66752;SHT31;53663;42.676;23.238;2023-11-21T06:42:32;8.96;65.29
66752;SHT31;53663;42.676;23.238;2023-11-21T06:44:59;9.58;62.94
66752;SHT31;53663;42.676;23.238;2023-11-21T06:47:25;10.18;60.98
66752;SHT31;53663;42.676;23.238;2023-11-21T06:49:52;11.36;58.54
66752;SHT31;53663;42.676;23.238;2023-11-21T06:52:18;12.39;53.43
66752;SHT31;53663;42.676;23.238;2023-11-21T06:54:44;12.64;51.72
66752;SHT31;53663;42.676;23.238;2023-11-21T06:57:11;12.01;52.91
66752;SHT31;53663;42.676;23.238;2023-11-21T06:59:37;12.36;52.09
66752;SHT31;53663;42.676;23.238;2023-11-21T07:02:02;11.92;53.91
66752;SHT31;53663;42.676;23.238;2023-11-21T07:04:29;12.50;51.58
66752;SHT31;53663;42.676;23.238;2023-11-21T07:06:55;12.11;52.89
66752;SHT31;53663;42.676;23.238;2023-11-21T07:09:21;12.90;51.04
66752;SHT31;53663;42.676;23.238;2023-11-21T07:11:50;12.84;49.49
66752;SHT31;53663;42.676;23.238;2023-11-21T07:14:16;12.65;50.84
66752;SHT31;53663;42.676;23.238;2023-11-21T07:16:42;12.41;51.20
66752;SHT31;53663;42.676;23.238;2023-11-21T07:19:08;12.77;50.65
66752;SHT31;53663;42.676;23.238;2023-11-21T07:21:34;12.67;50.21
66752;SHT31;53663;42.676;23.238;2023-11-21T07:24:00;12.41;50.94
66752;SHT31;53663;42.676;23.238;2023-11-21T07:26:27;12.19;52.20
66752;SHT31;53663;42.676;23.238;2023-11-21T07:28:53;12.53;51.49
66752;SHT31;53663;42.676;23.238;2023-11-21T07:31:18;12.30;51.51
66752;SHT31;53663;42.676;23.238;2023-11-21T07:33:45;12.29;52.28
66752;SHT31;53663;42.676;23.238;2023-11-21T07:36:13;11.86;53.21
66752;SHT31;53663;42.676;23.238;2023-11-21T07:38:38;11.58;55.02
66752;SHT31;53663;42.676;23.238;2023-11-21T07:41:04;10.57;57.39
66752;SHT31;53663;42.676;23.238;2023-11-21T07:43:30;10.54;57.16
66752;SHT31;53663;42.676;23.238;2023-11-21T07:46:01;11.30;56.30
66752;SHT31;53663;42.676;23.238;2023-11-21T07:48:31;10.64;56.87
66752;SHT31;53663;42.676;23.238;2023-11-21T07:50:58;11.65;55.24
66752;SHT31;53663;42.676;23.238;2023-11-21T07:53:26;12.77;51.81
66752;SHT31;53663;42.676;23.238;2023-11-21T07:55:54;13.49;49.96
66752;SHT31;53663;42.676;23.238;2023-11-21T07:58:20;12.54;51.71
66752;SHT31;53663;42.676;23.238;2023-11-21T08:00:46;12.13;53.69
66752;SHT31;53663;42.676;23.238;2023-11-21T08:03:13;12.20;53.03
66752;SHT31;53663;42.676;23.238;2023-11-21T08:05:39;11.71;53.95
66752;SHT31;53663;42.676;23.238;2023-11-21T08:08:05;11.65;54.30
66752;SHT31;53663;42.676;23.238;2023-11-21T08:10:31;11.98;54.23
66752;SHT31;53663;42.676;23.238;2023-11-21T08:12:56;12.91;52.27
66752;SHT31;53663;42.676;23.238;2023-11-21T08:15:22;13.57;50.77
66752;SHT31;53663;42.676;23.238;2023-11-21T08:17:48;13.93;49.08
66752;SHT31;53663;42.676;23.238;2023-11-21T08:20:14;14.46;47.94
66752;SHT31;53663;42.676;23.238;2023-11-21T08:22:42;14.56;46.83
66752;SHT31;53663;42.676;23.238;2023-11-21T08:25:08;13.60;49.40
66752;SHT31;53663;42.676;23.238;2023-11-21T08:27:34;13.83;48.85
66752;SHT31;53663;42.676;23.238;2023-11-21T08:30:01;14.20;48.03
66752;SHT31;53663;42.676;23.238;2023-11-21T08:32:26;14.14;48.27
66752;SHT31;53663;42.676;23.238;2023-11-21T08:34:52;15.16;46.58
66752;SHT31;53663;42.676;23.238;2023-11-21T08:37:17;15.08;46.48
66752;SHT31;53663;42.676;23.238;2023-11-21T08:39:44;15.41;45.55
66752;SHT31;53663;42.676;23.238;2023-11-21T08:42:10;15.57;45.72
66752;SHT31;53663;42.676;23.238;2023-11-21T08:44:35;15.82;44.99
66752;SHT31;53663;42.676;23.238;2023-11-21T08:47:01;16.05;44.86
66752;SHT31;53663;42.676;23.238;2023-11-21T08:49:27;15.07;46.00
66752;SHT31;53663;42.676;23.238;2023-11-21T08:51:54;14.84;47.41
66752;SHT31;53663;42.676;23.238;2023-11-21T08:54:25;15.57;45.54
66752;SHT31;53663;42.676;23.238;2023-11-21T08:56:52;16.54;43.41
66752;SHT31;53663;42.676;23.238;2023-11-21T08:59:17;16.78;42.22
66752;SHT31;53663;42.676;23.238;2023-11-21T09:01:43;15.99;42.79
66752;SHT31;53663;42.676;23.238;2023-11-21T09:04:08;14.89;46.91
66752;SHT31;53663;42.676;23.238;2023-11-21T09:06:34;14.44;47.15
66752;SHT31;53663;42.676;23.238;2023-11-21T09:09:00;13.43;50.33
66752;SHT31;53663;42.676;23.238;2023-11-21T09:11:26;12.77;52.02
66752;SHT31;53663;42.676;23.238;2023-11-21T09:13:56;13.15;50.74
66752;SHT31;53663;42.676;23.238;2023-11-21T09:16:23;13.01;50.80
66752;SHT31;53663;42.676;23.238;2023-11-21T09:18:48;13.02;50.97
66752;SHT31;53663;42.676;23.238;2023-11-21T09:21:14;12.77;51.59
66752;SHT31;53663;42.676;23.238;2023-11-21T09:23:39;12.44;52.92
66752;SHT31;53663;42.676;23.238;2023-11-21T09:26:05;12.63;51.94
66752;SHT31;53663;42.676;23.238;2023-11-21T09:28:30;13.12;50.85
66752;SHT31;53663;42.676;23.238;2023-11-21T09:30:56;13.59;49.34
66752;SHT31;53663;42.676;23.238;2023-11-21T09:33:21;13.73;49.11
66752;SHT31;53663;42.676;23.238;2023-11-21T09:35:50;14.31;48.12
66752;SHT31;53663;42.676;23.238;2023-11-21T09:38:16;14.03;48.96
66752;SHT31;53663;42.676;23.238;2023-11-21T09:40:42;14.15;48.80
66752;SHT31;53663;42.676;23.238;2023-11-21T09:43:28;14.84;46.40
66752;SHT31;53663;42.676;23.238;2023-11-21T09:46:00;15.16;44.37
66752;SHT31;53663;42.676;23.238;2023-11-21T09:48:27;15.38;44.45
66752;SHT31;53663;42.676;23.238;2023-11-21T09:50:54;15.58;44.03
66752;SHT31;53663;42.676;23.238;2023-11-21T09:53:22;15.83;43.70
66752;SHT31;53663;42.676;23.238;2023-11-21T09:55:53;15.86;43.53
66752;SHT31;53663;42.676;23.238;2023-11-21T09:58:19;15.34;45.14
66752;SHT31;53663;42.676;23.238;2023-11-21T10:00:47;15.69;43.65
66752;SHT31;53663;42.676;23.238;2023-11-21T10:03:14;16.44;42.26
66752;SHT31;53663;42.676;23.238;2023-11-21T10:05:42;16.56;42.02
66752;SHT31;53663;42.676;23.238;2023-11-21T10:08:09;16.67;42.71
66752;SHT31;53663;42.676;23.238;2023-11-21T10:10:36;17.20;41.67
66752;SHT31;53663;42.676;23.238;2023-11-21T10:13:06;17.15;40.25
66752;SHT31;53663;42.676;23.238;2023-11-21T10:15:36;17.16;41.26
66752;SHT31;53663;42.676;23.238;2023-11-21T10:18:07;15.93;43.02
66752;SHT31;53663;42.676;23.238;2023-11-21T10:20:33;15.35;44.56
66752;SHT31;53663;42.676;23.238;2023-11-21T10:23:03;14.10;47.69
66752;SHT31;53663;42.676;23.238;2023-11-21T10:25:30;14.25;48.11
66752;SHT31;53663;42.676;23.238;2023-11-21T10:28:01;13.69;49.62
66752;SHT31;53663;42.676;23.238;2023-11-21T10:30:37;13.25;50.25
66752;SHT31;53663;42.676;23.238;2023-11-21T10:33:04;12.76;51.37
66752;SHT31;53663;42.676;23.238;2023-11-21T10:35:59;12.74;51.04
66752;SHT31;53663;42.676;23.238;2023-11-21T10:38:26;12.43;51.63
66752;SHT31;53663;42.676;23.238;2023-11-21T10:40:53;12.53;52.05
66752;SHT31;53663;42.676;23.238;2023-11-21T10:43:20;12.30;52.80
66752;SHT31;53663;42.676;23.238;2023-11-21T10:45:49;12.19;53.04
66752;SHT31;53663;42.676;23.238;2023-11-21T10:48:15;12.12;52.53
66752;SHT31;53663;42.676;23.238;2023-11-21T10:50:45;12.11;53.04
66752;SHT31;53663;42.676;23.238;2023-11-21T10:53:11;11.64;55.05
66752;SHT31;53663;42.676;23.238;2023-11-21T10:55:38;11.65;55.02
66752;SHT31;53663;42.676;23.238;2023-11-21T10:58:04;11.14;55.28
66752;SHT31;53663;42.676;23.238;2023-11-21T11:00:32;10.88;56.36
66752;SHT31;53663;42.676;23.238;2023-11-21T11:02:58;11.13;57.13
66752;SHT31;53663;42.676;23.238;2023-11-21T11:05:28;11.07;56.18
66752;SHT31;53663;42.676;23.238;2023-11-21T11:08:08;11.16;56.31
66752;SHT31;53663;42.676;23.238;2023-11-21T11:10:35;11.03;56.85
66752;SHT31;53663;42.676;23.238;2023-11-21T11:13:00;11.02;56.45
66752;SHT31;53663;42.676;23.238;2023-11-21T11:15:27;11.16;56.52
66752;SHT31;53663;42.676;23.238;2023-11-21T11:17:53;10.85;58.37
66752;SHT31;53663;42.676;23.238;2023-11-21T11:20:30;10.78;58.72
66752;SHT31;53663;42.676;23.238;2023-11-21T11:28:29;10.82;58.58
66752;SHT31;53663;42.676;23.238;2023-11-21T11:31:09;10.76;58.56
66752;SHT31;53663;42.676;23.238;2023-11-21T11:36:48;10.61;59.48
66752;SHT31;53663;42.676;23.238;2023-11-21T11:39:30;10.61;58.57
66752;SHT31;53663;42.676;23.238;2023-11-21T11:42:02;10.61;59.43
66752;SHT31;53663;42.676;23.238;2023-11-21T11:47:26;10.82;59.78
66752;SHT31;53663;42.676;23.238;2023-11-21T11:49:58;10.71;60.39
66752;SHT31;53663;42.676;23.238;2023-11-21T11:55:15;10.64;61.96
66752;SHT31;53663;42.676;23.238;2023-11-21T12:00:18;10.78;62.58
66752;SHT31;53663;42.676;23.238;2023-11-21T12:02:57;10.76;62.98
66752;SHT31;53663;42.676;23.238;2023-11-21T12:05:25;10.69;63.06
66752;SHT31;53663;42.676;23.238;2023-11-21T12:07:56;10.82;63.20
66752;SHT31;53663;42.676;23.238;2023-11-21T12:10:28;10.73;64.32
66752;SHT31;53663;42.676;23.238;2023-11-21T12:12:58;10.76;63.51
66752;SHT31;53663;42.676;23.238;2023-11-21T12:15:25;10.78;65.35
66752;SHT31;53663;42.676;23.238;2023-11-21T12:17:51;10.72;64.59
66752;SHT31;53663;42.676;23.238;2023-11-21T12:20:22;10.73;64.16
66752;SHT31;53663;42.676;23.238;2023-11-21T12:22:48;10.80;63.61
66752;SHT31;53663;42.676;23.238;2023-11-21T12:27:46;10.48;65.98
66752;SHT31;53663;42.676;23.238;2023-11-21T12:30:12;10.34;66.69
66752;SHT31;53663;42.676;23.238;2023-11-21T12:32:49;10.16;67.15
66752;SHT31;53663;42.676;23.238;2023-11-21T12:35:15;10.11;66.04
66752;SHT31;53663;42.676;23.238;2023-11-21T12:37:45;10.17;65.77
66752;SHT31;53663;42.676;23.238;2023-11-21T12:40:12;10.28;65.68
66752;SHT31;53663;42.676;23.238;2023-11-21T12:42:47;10.11;65.88
66752;SHT31;53663;42.676;23.238;2023-11-21T12:47:50;10.10;65.80
66752;SHT31;53663;42.676;23.238;2023-11-21T12:50:23;10.01;67.56
66752;SHT31;53663;42.676;23.238;2023-11-21T12:52:52;9.73;67.37
66752;SHT31;53663;42.676;23.238;2023-11-21T12:55:22;9.82;65.98
66752;SHT31;53663;42.676;23.238;2023-11-21T12:57:55;9.69;66.48
66752;SHT31;53663;42.676;23.238;2023-11-21T13:00:35;9.46;67.39
66752;SHT31;53663;42.676;23.238;2023-11-21T13:03:04;9.52;68.09
66752;SHT31;53663;42.676;23.238;2023-11-21T13:05:32;9.48;67.26
66752;SHT31;53663;42.676;23.238;2023-11-21T13:08:03;9.49;67.74
66752;SHT31;53663;42.676;23.238;2023-11-21T13:10:31;9.55;67.06
66752;SHT31;53663;42.676;23.238;2023-11-21T13:12:58;9.45;67.38
66752;SHT31;53663;42.676;23.238;2023-11-21T13:15:25;9.70;66.71
66752;SHT31;53663;42.676;23.238;2023-11-21T13:17:51;9.94;66.10
66752;SHT31;53663;42.676;23.238;2023-11-21T13:20:19;10.07;64.78
66752;SHT31;53663;42.676;23.238;2023-11-21T13:22:56;10.13;63.15
66752;SHT31;53663;42.676;23.238;2023-11-21T13:25:25;9.86;63.33
66752;SHT31;53663;42.676;23.238;2023-11-21T13:27:54;9.93;63.80
66752;SHT31;53663;42.676;23.238;2023-11-21T13:30:20;9.90;63.78
66752;SHT31;53663;42.676;23.238;2023-11-21T13:32:53;9.78;65.18
66752;SHT31;53663;42.676;23.238;2023-11-21T13:35:23;9.65;66.13
66752;SHT31;53663;42.676;23.238;2023-11-21T13:37:57;9.69;65.78
66752;SHT31;53663;42.676;23.238;2023-11-21T13:40:27;9.46;66.97
66752;SHT31;53663;42.676;23.238;2023-11-21T13:42:54;8.97;68.32
66752;SHT31;53663;42.676;23.238;2023-11-21T13:45:23;8.63;69.85
66752;SHT31;53663;42.676;23.238;2023-11-21T13:47:51;8.91;69.65
66752;SHT31;53663;42.676;23.238;2023-11-21T13:50:20;9.11;69.06
66752;SHT31;53663;42.676;23.238;2023-11-21T13:52:49;9.03;69.20
66752;SHT31;53663;42.676;23.238;2023-11-21T13:55:17;8.66;70.53
66752;SHT31;53663;42.676;23.238;2023-11-21T13:57:43;8.80;71.03
66752;SHT31;53663;42.676;23.238;2023-11-21T14:00:16;9.03;71.10
66752;SHT31;53663;42.676;23.238;2023-11-21T14:03:00;9.14;71.12
66752;SHT31;53663;42.676;23.238;2023-11-21T14:05:29;8.97;71.19
66752;SHT31;53663;42.676;23.238;2023-11-21T14:07:57;8.74;71.27
66752;SHT31;53663;42.676;23.238;2023-11-21T14:10:29;8.93;71.39
66752;SHT31;53663;42.676;23.238;2023-11-21T14:13:03;9.10;71.24
66752;SHT31;53663;42.676;23.238;2023-11-21T14:15:29;9.14;71.51
66752;SHT31;53663;42.676;23.238;2023-11-21T14:17:56;9.12;70.62
66752;SHT31;53663;42.676;23.238;2023-11-21T14:20:22;9.22;70.60
66752;SHT31;53663;42.676;23.238;2023-11-21T14:22:47;9.31;70.46
66752;SHT31;53663;42.676;23.238;2023-11-21T14:25:13;9.42;70.41
66752;SHT31;53663;42.676;23.238;2023-11-21T14:27:39;9.48;70.52
66752;SHT31;53663;42.676;23.238;2023-11-21T14:30:06;9.49;70.98
66752;SHT31;53663;42.676;23.238;2023-11-21T14:32:31;9.55;70.61
66752;SHT31;53663;42.676;23.238;2023-11-21T14:34:57;9.68;70.30
66752;SHT31;53663;42.676;23.238;2023-11-21T14:37:23;9.65;70.17
66752;SHT31;53663;42.676;23.238;2023-11-21T14:39:49;9.70;70.68
66752;SHT31;53663;42.676;23.238;2023-11-21T14:42:15;9.75;70.35
66752;SHT31;53663;42.676;23.238;2023-11-21T14:44:41;9.76;70.58
66752;SHT31;53663;42.676;23.238;2023-11-21T14:47:07;9.56;71.51
66752;SHT31;53663;42.676;23.238;2023-11-21T14:49:43;9.52;71.68
66752;SHT31;53663;42.676;23.238;2023-11-21T14:52:22;9.66;71.30
66752;SHT31;53663;42.676;23.238;2023-11-21T14:55:03;9.59;70.62
66752;SHT31;53663;42.676;23.238;2023-11-21T14:57:46;9.55;71.68
66752;SHT31;53663;42.676;23.238;2023-11-21T15:00:17;9.41;71.44
66752;SHT31;53663;42.676;23.238;2023-11-21T15:03:05;9.14;71.48
66752;SHT31;53663;42.676;23.238;2023-11-21T15:05:32;9.24;71.48
66752;SHT31;53663;42.676;23.238;2023-11-21T15:08:00;9.18;71.87
66752;SHT31;53663;42.676;23.238;2023-11-21T15:10:49;9.12;72.11
66752;SHT31;53663;42.676;23.238;2023-11-21T15:13:19;9.20;72.30
66752;SHT31;53663;42.676;23.238;2023-11-21T15:15:44;9.08;73.04
66752;SHT31;53663;42.676;23.238;2023-11-21T15:18:10;9.05;73.55
66752;SHT31;53663;42.676;23.238;2023-11-21T15:20:39;9.12;72.95
66752;SHT31;53663;42.676;23.238;2023-11-21T15:23:05;9.07;73.25
66752;SHT31;53663;42.676;23.238;2023-11-21T15:25:31;9.00;73.73
66752;SHT31;53663;42.676;23.238;2023-11-21T15:27:57;9.12;73.40
66752;SHT31;53663;42.676;23.238;2023-11-21T15:30:23;9.14;73.34
66752;SHT31;53663;42.676;23.238;2023-11-21T15:32:51;9.03;73.54
66752;SHT31;53663;42.676;23.238;2023-11-21T15:35:18;8.97;73.43
66752;SHT31;53663;42.676;23.238;2023-11-21T15:37:44;8.84;73.09
66752;SHT31;53663;42.676;23.238;2023-11-21T15:40:11;8.74;74.17
66752;SHT31;53663;42.676;23.238;2023-11-21T15:42:38;8.52;75.45
66752;SHT31;53663;42.676;23.238;2023-11-21T15:45:04;8.50;75.70
66752;SHT31;53663;42.676;23.238;2023-11-21T15:47:33;8.59;75.66
66752;SHT31;53663;42.676;23.238;2023-11-21T15:49:58;8.72;75.41